Aeroporto :
LOGIN :

Iscrizione | Disclaimer

   EN    FR    IT 

 










Sommario :    VFR   VFR Marginale   IFR   IFR Intensivo   IFR Molto Intensivo
Visibilità : 
Base nubi : 
>= 8 km
>= 3000ft
5 / 8 km
1000 / 3000 ft
1500m / 5 km
500 / 1000 ft
800 / 1500m
200 / 500 ft
< 800m
< 200 ft
Simboli :   Temporali  Nebbia  Neve Forte  Precipitazioni Forti  Vento > 20 kt
SIGMETs :   Varie  Temporali  Ghiacco  Turbolenza  Onda orograficha  Ceneri Vulcaniche






- Altitudine del aeroporto : 1273 ft
- Codice IATA : LJU


LJLJ - Ljubljana

ULTIMO METAR :
  • 271630Z VRB02KT 9999 FEW007 BKN100 12/12 Q1012 NOSIG

METARs OBSOLETI :
  • 271600Z 10004KT 9999 FEW027 SCT100 BKN140 12/11 Q1012 NOSIG
  • 271530Z 09002KT 9999 FEW010 SCT057 BKN120 12/12 Q1011 NOSIG
  • 271500Z 10003KT 9999 FEW006 SCT057 BKN120 13/12 Q1011 NOSIG
  • 271430Z 12005KT 9999 FEW006 SCT057 BKN120 13/12 Q1011 NOSIG
  • 271400Z 08004KT 060V140 8000 FEW006 SCT057 BKN090 13/12 Q1010 NOSIG

TAF TAF LJLJ
Valido dal 27 a 12 ore il 28 a 12 ore UTC


271100Z 2712/2812 12005KT 9999 SCT030 BKN045
TEMPO 2712/2717 SHRA BKN030TCU
PROB40
TEMPO 2717/2721 -RA
TEMPO 2721/2810 3500 BR BKN015
PROB40
TEMPO 2803/2808 0350 FG VV001



MetMap, La meteo Aeronautica in un colpo d'occhio ! - Copyright ORBIFLY Dicembre 2007 - Disclaimer

ORBIFLY MET'MAP TEAM :

Programmazione e sviluppo : Alexandra Zaïnal
Concezione : Baudouin d'Aumeries
Aiuto per la programmazione : Marc-Olivier Méhu
Supporto tecnico e logistico : Manuel Goepfert
Aiuto per la traduzione : Arnaldo La Scala

Contatto : metmap@orbifly.com




FONTI E CREDITI :

   NOAA